createdAt,value
2022-10-29T00:01:06.108Z,70.36
2022-10-29T00:04:09.024Z,70.69
2022-10-29T00:07:13.234Z,71.18
2022-10-29T00:10:15.909Z,70.92
2022-10-29T00:13:18.568Z,71.22
2022-10-29T00:16:23.622Z,71.41
2022-10-29T00:19:27.858Z,70.86
2022-10-29T00:22:32.631Z,70.91
2022-10-29T00:25:35.489Z,71.24
2022-10-29T00:28:38.269Z,72.52
2022-10-29T00:31:41.066Z,72.45
2022-10-29T00:34:43.948Z,72.06
2022-10-29T00:37:48.362Z,72.42
2022-10-29T00:40:51.287Z,72.41
2022-10-29T00:44:28.380Z,72.53
2022-10-29T00:47:34.778Z,73.05
2022-10-29T00:50:37.563Z,72.60
2022-10-29T00:53:45.468Z,72.85
2022-10-29T00:56:50.059Z,72.11
2022-10-29T00:59:53.852Z,72.54
2022-10-29T01:02:56.873Z,72.61
2022-10-29T01:06:01.192Z,72.53
2022-10-29T01:09:05.609Z,72.86
2022-10-29T01:12:26.806Z,73.17
2022-10-29T01:15:38.237Z,73.54
2022-10-29T01:18:50.006Z,73.98
2022-10-29T01:21:57.532Z,73.56
2022-10-29T01:25:26.903Z,74.15
2022-10-29T01:28:42.735Z,74.43
2022-10-29T01:31:50.951Z,74.63
2022-10-29T01:35:01.450Z,74.31
2022-10-29T01:38:13.292Z,74.35
2022-10-29T01:41:21.385Z,74.73
2022-10-29T01:44:34.282Z,75.47
2022-10-29T01:47:43.006Z,75.54
2022-10-29T01:50:50.771Z,75.51
2022-10-29T01:53:54.517Z,75.52
2022-10-29T01:56:58.433Z,74.87
2022-10-29T02:00:04.100Z,75.34
2022-10-29T02:03:22.649Z,75.10
2022-10-29T02:06:38.209Z,75.18
2022-10-29T02:09:53.215Z,76.01
2022-10-29T02:12:58.459Z,75.71
2022-10-29T02:16:06.753Z,75.84
2022-10-29T02:19:10.931Z,76.05
2022-10-29T02:22:13.518Z,76.21
2022-10-29T02:25:16.219Z,76.09
2022-10-29T02:31:26.922Z,76.31
2022-10-29T02:34:31.023Z,76.52
2022-10-29T02:37:34.968Z,76.26
2022-10-29T02:40:37.697Z,76.61
2022-10-29T02:43:40.419Z,76.53
2022-10-29T02:46:43.137Z,76.65
2022-10-29T02:49:47.814Z,76.73
2022-10-29T02:52:53.249Z,76.74
2022-10-29T02:55:56.114Z,76.37
2022-10-29T02:58:59.007Z,76.93
2022-10-29T03:02:01.889Z,76.71
2022-10-29T03:05:06.798Z,77.01
2022-10-29T03:08:09.831Z,76.92
2022-10-29T03:11:13.396Z,77.08
2022-10-29T03:14:16.734Z,77.18
2022-10-29T03:17:19.820Z,76.74
2022-10-29T03:20:24.547Z,77.19
2022-10-29T03:23:27.765Z,77.20
2022-10-29T03:26:30.761Z,77.12
2022-10-29T03:29:33.627Z,77.30
2022-10-29T03:32:36.470Z,77.46
2022-10-29T03:35:43.939Z,77.11
2022-10-29T03:38:47.033Z,76.58
2022-10-29T03:41:49.704Z,76.66
2022-10-29T03:44:52.968Z,77.33
2022-10-29T03:47:56.222Z,77.60
2022-10-29T03:51:02.896Z,77.83
2022-10-29T03:54:05.734Z,77.69
2022-10-29T03:57:09.091Z,77.32
2022-10-29T04:00:12.813Z,77.29
2022-10-29T04:03:15.373Z,77.20
2022-10-29T04:06:19.908Z,77.51
2022-10-29T04:09:22.525Z,77.73
2022-10-29T04:12:25.228Z,77.87
2022-10-29T04:15:27.926Z,77.52
2022-10-29T04:18:30.625Z,77.48
2022-10-29T04:31:42.602Z,77.56
2022-10-29T04:34:45.141Z,77.83
2022-10-29T04:37:49.167Z,77.82
2022-10-29T04:40:51.766Z,78.00
2022-10-29T04:43:54.443Z,78.19
2022-10-29T04:46:57.108Z,78.26
2022-10-29T04:49:59.737Z,78.06
2022-10-29T04:53:05.198Z,78.17
2022-10-29T04:56:08.161Z,78.31
2022-10-29T04:59:10.834Z,78.32
2022-10-29T05:02:13.565Z,78.34
2022-10-29T05:05:16.273Z,77.97
2022-10-29T05:08:21.618Z,78.23
2022-10-29T05:11:24.181Z,78.31
2022-10-29T05:14:26.910Z,78.15
2022-10-29T05:17:29.626Z,78.85
2022-10-29T05:20:32.481Z,78.29
2022-10-29T05:23:36.484Z,78.57
2022-10-29T05:26:39.108Z,78.41
2022-10-29T05:29:41.883Z,78.52
2022-10-29T05:32:44.705Z,78.98
2022-10-29T05:35:47.547Z,79.28
2022-10-29T05:38:51.580Z,79.42
2022-10-29T05:41:54.153Z,79.41
2022-10-29T05:44:59.073Z,79.19
2022-10-29T05:48:04.095Z,79.30
2022-10-29T05:51:06.779Z,79.52
2022-10-29T05:54:10.809Z,79.49
2022-10-29T05:57:13.363Z,79.36
2022-10-29T06:00:16.574Z,79.45
2022-10-29T06:03:23.148Z,79.62
2022-10-29T06:06:25.836Z,79.52
2022-10-29T06:09:29.903Z,79.65
2022-10-29T06:12:34.889Z,79.37
2022-10-29T06:15:37.765Z,79.47
2022-10-29T06:18:40.521Z,79.88
2022-10-29T06:21:43.118Z,79.81
2022-10-29T06:24:47.156Z,79.87
2022-10-29T06:27:49.699Z,79.60
2022-10-29T06:30:52.602Z,79.73
2022-10-29T06:33:56.268Z,79.81
2022-10-29T06:36:58.805Z,79.53
2022-10-29T06:40:02.896Z,79.45
2022-10-29T06:43:07.322Z,79.50
2022-10-29T06:46:10.169Z,79.50
2022-10-29T06:49:12.748Z,79.77
2022-10-29T06:52:15.307Z,79.23
2022-10-29T06:55:19.451Z,79.43
2022-10-29T06:58:22.210Z,79.39
2022-10-29T07:01:30.732Z,79.17
2022-10-29T07:04:34.550Z,79.03
2022-10-29T07:07:37.113Z,79.13
2022-10-29T07:10:41.146Z,78.83
2022-10-29T07:13:43.751Z,78.79
2022-10-29T07:16:46.438Z,78.75
2022-10-29T07:19:49.142Z,78.02
2022-10-29T07:22:51.713Z,77.65
2022-10-29T07:25:55.804Z,77.77
2022-10-29T07:28:58.572Z,78.31
2022-10-29T07:32:01.288Z,78.06
2022-10-29T07:35:04.025Z,77.39
2022-10-29T07:38:10.888Z,77.36
2022-10-29T07:41:15.650Z,77.59
2022-10-29T07:44:18.328Z,77.54
2022-10-29T07:47:21.075Z,77.51
2022-10-29T07:50:23.821Z,77.72
2022-10-29T07:53:26.681Z,77.57
2022-10-29T07:56:30.734Z,77.90
2022-10-29T07:59:33.292Z,77.89
2022-10-29T08:02:36.032Z,77.72
2022-10-29T08:05:39.037Z,77.61
2022-10-29T08:08:41.585Z,78.00
2022-10-29T08:11:49.020Z,77.17
2022-10-29T08:14:58.195Z,76.25
2022-10-29T08:18:01.255Z,76.81
2022-10-29T08:21:05.848Z,76.12
2022-10-29T08:24:08.554Z,76.44
2022-10-29T08:27:12.606Z,76.47
2022-10-29T08:30:15.277Z,75.47
2022-10-29T08:33:18.183Z,75.42
2022-10-29T08:36:20.899Z,75.21
2022-10-29T08:39:23.562Z,74.33
2022-10-29T08:42:40.305Z,73.78
2022-10-29T08:45:47.515Z,73.78
2022-10-29T08:48:55.443Z,73.97
2022-10-29T08:52:04.207Z,73.23
2022-10-29T08:55:14.238Z,72.77
2022-10-29T08:58:28.112Z,73.00
2022-10-29T09:01:31.562Z,71.80
2022-10-29T09:04:35.831Z,72.08
2022-10-29T09:08:02.085Z,72.22
2022-10-29T09:11:26.372Z,72.04
2022-10-29T09:14:46.459Z,70.75
2022-10-29T09:18:05.725Z,71.25
2022-10-29T09:21:18.482Z,70.48
2022-10-29T09:24:31.307Z,71.20
2022-10-29T09:27:46.080Z,69.62
2022-10-29T09:30:59.942Z,70.95
2022-10-29T09:34:11.027Z,71.72
2022-10-29T09:37:18.853Z,71.07
2022-10-29T09:40:32.143Z,70.84
2022-10-29T09:43:39.935Z,70.59
2022-10-29T09:46:50.964Z,69.86
2022-10-29T09:50:12.743Z,67.46
2022-10-29T09:53:15.736Z,67.47
2022-10-29T09:56:18.472Z,68.10
2022-10-29T09:59:29.493Z,67.71
2022-10-29T10:02:37.495Z,68.92
2022-10-29T10:05:58.461Z,69.47
2022-10-29T10:09:02.770Z,69.24
2022-10-29T10:12:08.788Z,69.38
2022-10-29T10:15:21.018Z,68.40
2022-10-29T10:18:27.061Z,68.73
2022-10-29T10:21:31.931Z,68.40
2022-10-29T10:24:36.122Z,66.08
2022-10-29T10:27:38.658Z,64.46
2022-10-29T10:30:43.205Z,62.05
2022-10-29T10:33:51.043Z,61.39
2022-10-29T10:36:56.256Z,60.96
2022-10-29T10:40:02.624Z,60.46
2022-10-29T10:43:08.240Z,60.12
2022-10-29T10:46:17.205Z,58.98
2022-10-29T10:49:30.184Z,59.75
2022-10-29T10:52:33.505Z,60.87
2022-10-29T10:55:38.721Z,60.88
2022-10-29T10:58:48.248Z,60.52
2022-10-29T11:01:53.543Z,60.49
2022-10-29T11:05:05.111Z,60.99
2022-10-29T11:08:17.392Z,61.05
2022-10-29T11:11:27.457Z,59.55
2022-10-29T11:15:14.196Z,59.94
2022-10-29T11:18:21.916Z,59.43
2022-10-29T11:21:31.738Z,58.17
2022-10-29T11:24:45.097Z,57.61
2022-10-29T11:27:52.958Z,57.46
2022-10-29T11:31:01.115Z,57.84
2022-10-29T11:34:07.729Z,58.07
2022-10-29T11:37:19.418Z,57.06
2022-10-29T11:40:25.118Z,57.48
2022-10-29T11:43:27.694Z,57.87
2022-10-29T11:46:40.403Z,56.46
2022-10-29T11:49:58.184Z,57.93
2022-10-29T11:53:17.078Z,57.97
2022-10-29T11:56:31.164Z,60.01
2022-10-29T11:59:48.142Z,60.64
2022-10-29T12:03:16.908Z,60.27
2022-10-29T12:06:26.393Z,59.40
2022-10-29T12:09:46.518Z,59.95
2022-10-29T12:12:53.497Z,59.97
2022-10-29T12:16:08.744Z,59.71
2022-10-29T12:19:25.815Z,60.03
2022-10-29T12:22:38.287Z,60.24
2022-10-29T12:25:52.836Z,58.64
2022-10-29T12:29:03.976Z,59.67
2022-10-29T12:32:12.912Z,59.51
2022-10-29T12:35:21.256Z,59.78
2022-10-29T12:38:39.119Z,59.56
2022-10-29T12:41:47.103Z,60.19
2022-10-29T12:45:01.661Z,59.34
2022-10-29T12:48:11.951Z,60.02
2022-10-29T12:51:21.426Z,59.67
2022-10-29T12:54:36.818Z,59.84
2022-10-29T12:57:40.867Z,59.79
2022-10-29T13:00:48.723Z,58.71
2022-10-29T13:04:02.205Z,59.37
2022-10-29T13:07:07.199Z,58.87
2022-10-29T13:10:43.109Z,60.71
2022-10-29T13:14:00.155Z,61.01
2022-10-29T13:17:05.253Z,60.33
2022-10-29T13:20:21.680Z,59.71
2022-10-29T13:23:35.106Z,59.20
2022-10-29T13:26:58.778Z,60.92
2022-10-29T13:30:25.526Z,61.15
2022-10-29T13:33:52.391Z,60.87
2022-10-29T13:36:54.975Z,61.62
2022-10-29T13:40:31.011Z,61.29
2022-10-29T13:43:34.516Z,61.51
2022-10-29T13:46:48.761Z,61.17
2022-10-29T13:49:52.027Z,61.01
2022-10-29T13:52:59.688Z,61.17
2022-10-29T13:56:03.209Z,61.98
2022-10-29T13:59:12.212Z,61.57
2022-10-29T14:02:24.793Z,61.17
2022-10-29T14:05:32.563Z,60.89
2022-10-29T14:08:41.736Z,61.25
2022-10-29T14:11:49.507Z,61.61
2022-10-29T14:14:59.095Z,61.33
2022-10-29T14:18:24.864Z,61.21
2022-10-29T14:21:30.118Z,61.48
2022-10-29T14:24:38.618Z,61.09
2022-10-29T14:27:41.495Z,61.00
2022-10-29T14:30:44.486Z,61.75
2022-10-29T14:33:55.364Z,61.63
2022-10-29T14:37:03.269Z,62.03
2022-10-29T14:40:16.210Z,62.59
2022-10-29T14:43:24.953Z,62.57
2022-10-29T14:46:30.035Z,62.40
2022-10-29T14:49:36.262Z,63.09
2022-10-29T14:52:42.302Z,63.30
2022-10-29T14:55:49.217Z,63.38
2022-10-29T14:58:51.821Z,63.46
2022-10-29T15:02:05.609Z,63.85
2022-10-29T15:05:26.888Z,64.11
2022-10-29T15:08:34.248Z,64.17
2022-10-29T15:11:39.164Z,64.80
2022-10-29T15:14:48.164Z,65.50
2022-10-29T15:17:53.295Z,65.67
2022-10-29T15:20:57.854Z,65.79
2022-10-29T15:24:06.492Z,66.50
2022-10-29T15:27:14.827Z,66.89
2022-10-29T15:30:20.338Z,67.27
2022-10-29T15:33:27.575Z,67.92
2022-10-29T15:40:05.999Z,69.04
2022-10-29T15:43:30.172Z,69.31
2022-10-29T15:46:45.267Z,69.44
2022-10-29T15:49:48.189Z,69.50
2022-10-29T15:52:56.949Z,70.07
2022-10-29T15:56:00.864Z,70.11
2022-10-29T15:59:03.645Z,70.26
2022-10-29T16:02:17.502Z,70.28
2022-10-29T16:05:20.396Z,70.57
2022-10-29T16:08:27.597Z,70.97
2022-10-29T16:11:31.639Z,71.08
2022-10-29T16:14:34.388Z,71.37
2022-10-29T16:17:37.202Z,71.57
2022-10-29T16:20:39.823Z,71.51
2022-10-29T16:23:43.004Z,71.65
2022-10-29T16:26:46.993Z,72.00
2022-10-29T16:29:50.106Z,72.11
2022-10-29T16:32:53.362Z,72.41
2022-10-29T16:35:57.501Z,72.29
2022-10-29T16:39:03.099Z,72.45
2022-10-29T16:42:08.590Z,72.36
2022-10-29T16:45:16.690Z,72.58
2022-10-29T16:48:20.551Z,72.64
2022-10-29T16:51:23.263Z,72.98
2022-10-29T16:54:26.266Z,72.94
2022-10-29T16:57:30.726Z,73.18
2022-10-29T17:00:36.922Z,73.63
2022-10-29T17:03:40.181Z,73.65
2022-10-29T17:06:42.855Z,73.84
2022-10-29T17:09:45.515Z,73.94
2022-10-29T17:12:50.126Z,73.72
2022-10-29T17:15:52.789Z,73.74
2022-10-29T17:18:56.546Z,73.78
2022-10-29T17:21:59.595Z,73.88
2022-10-29T17:25:02.348Z,73.95
2022-10-29T17:28:06.286Z,74.11
2022-10-29T17:31:10.250Z,74.24
2022-10-29T17:34:12.799Z,74.35
2022-10-29T17:37:15.403Z,74.07
2022-10-29T17:40:18.129Z,74.46
2022-10-29T17:43:22.185Z,74.61
2022-10-29T17:46:24.794Z,74.88
2022-10-29T17:49:27.611Z,74.50
2022-10-29T17:52:30.189Z,74.80
2022-10-29T17:55:32.875Z,75.31
2022-10-29T17:58:38.973Z,74.96
2022-10-29T18:01:41.791Z,75.47
2022-10-29T18:04:46.556Z,75.46
2022-10-29T18:07:49.232Z,75.49
2022-10-29T18:10:53.505Z,75.47
2022-10-29T18:13:58.510Z,75.95
2022-10-29T18:17:02.785Z,76.32
2022-10-29T18:20:06.643Z,76.08
2022-10-29T18:23:09.315Z,76.03
2022-10-29T18:26:22.537Z,76.39
2022-10-29T18:29:26.470Z,76.53
2022-10-29T18:32:29.038Z,76.48
2022-10-29T18:35:31.701Z,76.31
2022-10-29T18:38:34.565Z,76.27
2022-10-29T18:41:37.111Z,76.51
2022-10-29T18:44:41.094Z,76.73
2022-10-29T18:47:43.644Z,76.77
2022-10-29T18:50:46.224Z,76.39
2022-10-29T18:53:49.234Z,76.71
2022-10-29T18:56:52.299Z,76.88
2022-10-29T18:59:56.337Z,76.70
2022-10-29T19:02:59.251Z,76.86
2022-10-29T19:06:03.659Z,77.00
2022-10-29T19:09:08.805Z,77.01
2022-10-29T19:12:12.973Z,77.28
2022-10-29T19:15:17.127Z,77.66
2022-10-29T19:18:19.962Z,77.56
2022-10-29T19:21:23.646Z,77.62
2022-10-29T19:24:26.648Z,77.45
2022-10-29T19:27:29.400Z,77.58
2022-10-29T19:30:33.941Z,77.37
2022-10-29T19:33:37.291Z,77.36
2022-10-29T19:36:40.646Z,77.43
2022-10-29T19:39:43.412Z,77.51
2022-10-29T19:42:48.451Z,77.62
2022-10-29T19:45:57.742Z,77.84
2022-10-29T19:49:00.683Z,78.40
2022-10-29T19:52:03.377Z,78.12
2022-10-29T19:55:07.031Z,77.97
2022-10-29T19:58:10.752Z,77.84
2022-10-29T20:01:15.995Z,78.21
2022-10-29T20:04:18.965Z,78.76
2022-10-29T20:07:21.773Z,78.40
2022-10-29T20:10:25.500Z,79.10
2022-10-29T20:13:28.521Z,79.61
2022-10-29T20:16:35.605Z,79.81
2022-10-29T20:19:40.277Z,79.19
2022-10-29T20:22:48.160Z,79.15
2022-10-29T20:25:51.718Z,79.44
2022-10-29T20:29:01.301Z,79.24
2022-10-29T20:32:06.026Z,79.12
2022-10-29T20:35:12.237Z,79.03
2022-10-29T20:38:15.000Z,79.03
2022-10-29T20:41:17.838Z,78.71
2022-10-29T20:44:20.542Z,78.44
2022-10-29T20:47:25.880Z,78.90
2022-10-29T20:50:28.799Z,79.05
2022-10-29T20:53:31.391Z,79.13
2022-10-29T20:56:34.199Z,79.64
2022-10-29T20:59:37.291Z,79.53
2022-10-29T21:02:41.806Z,79.91
2022-10-29T21:05:45.388Z,79.42
2022-10-29T21:08:48.882Z,79.17
2022-10-29T21:11:52.800Z,79.08
2022-10-29T21:14:55.592Z,79.09
2022-10-29T21:18:05.144Z,79.33
2022-10-29T21:21:10.607Z,79.04
2022-10-29T21:24:13.194Z,79.57
2022-10-29T21:27:18.509Z,79.68
2022-10-29T21:30:22.750Z,79.66
2022-10-29T21:33:26.844Z,79.33
2022-10-29T21:36:29.634Z,79.37
2022-10-29T21:39:33.280Z,79.20
2022-10-29T21:42:36.549Z,79.22
2022-10-29T21:45:39.520Z,79.42
2022-10-29T21:48:43.790Z,80.31
2022-10-29T21:51:48.210Z,79.74
2022-10-29T21:54:51.853Z,79.86
2022-10-29T21:57:54.659Z,79.91
2022-10-29T22:01:07.359Z,79.50
2022-10-29T22:04:11.463Z,80.63
2022-10-29T22:07:14.363Z,80.25
2022-10-29T22:10:17.224Z,80.47
2022-10-29T22:13:20.230Z,80.07
2022-10-29T22:16:23.540Z,80.29
2022-10-29T22:19:27.927Z,80.19
2022-10-29T22:22:30.651Z,80.83
2022-10-29T22:25:33.782Z,80.19
2022-10-29T22:28:36.475Z,80.44
2022-10-29T22:31:39.467Z,80.68
2022-10-29T22:34:43.374Z,80.32
2022-10-29T22:37:46.701Z,80.79
2022-10-29T22:40:49.389Z,80.99
2022-10-29T22:43:52.831Z,80.83
2022-10-29T22:46:55.498Z,80.10
2022-10-29T22:50:03.115Z,80.00
2022-10-29T22:53:09.016Z,80.62
2022-10-29T22:56:15.359Z,80.74
2022-10-29T22:59:18.434Z,80.07
2022-10-29T23:02:21.639Z,80.54
2022-10-29T23:05:25.928Z,80.40
2022-10-29T23:08:29.319Z,80.86
2022-10-29T23:11:35.188Z,80.33
2022-10-29T23:14:38.501Z,80.40
2022-10-29T23:17:41.479Z,81.07
2022-10-29T23:20:46.084Z,80.96
2022-10-29T23:23:49.906Z,80.94
2022-10-29T23:26:52.559Z,81.23
2022-10-29T23:29:55.391Z,81.31
2022-10-29T23:32:58.364Z,81.02
2022-10-29T23:36:07.806Z,80.91
2022-10-29T23:39:10.609Z,80.78
2022-10-29T23:42:13.349Z,80.38
2022-10-29T23:45:16.921Z,80.97
2022-10-29T23:48:20.434Z,80.26
2022-10-29T23:51:24.373Z,80.74
2022-10-29T23:54:27.155Z,80.71
2022-10-29T23:57:29.685Z,80.33
